Time;durP1;ratioP1;P1;durP2;ratioP2;P2;SDS_P1;SDS_P2;PMS_P1;PMS_P2;Temp;Humidity;BMP_temperature;BMP_pressure;BME280_temperature;BME280_humidity;BME280_pressure;Samples;Min_cycle;Max_cycle;Signal;HPM_P1;HPM_P2
2022/01/03 00:00:22;;;;;;;10.03;3.97;;;;;;;5.86;100.00;95875.94;5135214;27;20509;-50
2022/01/03 00:02:52;;;;;;;1.87;1.87;;;;;;;5.45;100.00;95892.47;5134677;27;20962;-50
2022/01/03 00:05:20;;;;;;;0.40;0.30;;;;;;;5.53;100.00;95891.38;5134867;27;20423;-50
2022/01/03 00:07:49;;;;;;;0.70;0.70;;;;;;;6.00;100.00;95887.84;5134979;27;20502;-50
2022/01/03 00:10:20;;;;;;;1.47;1.37;;;;;;;5.97;100.00;95885.66;5133631;27;20430;-50
2022/01/03 00:12:50;;;;;;;3.80;1.50;;;;;;;5.86;100.00;95880.41;5133505;27;20434;-50
2022/01/03 00:15:20;;;;;;;0.70;0.67;;;;;;;6.09;100.00;95881.25;5134819;27;20510;-51
2022/01/03 00:17:49;;;;;;;0.40;0.30;;;;;;;6.18;100.00;95879.06;5134493;27;20966;-50
2022/01/03 00:20:19;;;;;;;1.83;1.73;;;;;;;6.15;100.00;95885.59;5134429;27;20430;-50
2022/01/03 00:22:54;;;;;;;0.73;0.73;;;;;;;5.56;100.00;95896.19;5134703;27;20849;-50
2022/01/03 00:25:25;;;;;;;1.23;1.23;;;;;;;5.71;100.00;95878.16;5134327;27;20468;-50
2022/01/03 00:27:59;;;;;;;2.40;0.40;;;;;;;5.94;100.00;95874.81;5134322;27;20466;-50
2022/01/03 00:30:28;;;;;;;7.60;1.17;;;;;;;6.09;100.00;95870.72;5133464;27;20462;-50
2022/01/03 00:32:59;;;;;;;0.60;0.60;;;;;;;5.89;100.00;95837.84;5134138;27;20430;-50
2022/01/03 00:35:30;;;;;;;0.50;0.47;;;;;;;5.98;100.00;95855.72;5134536;27;20501;-50
2022/01/03 00:38:00;;;;;;;0.87;0.87;;;;;;;6.04;100.00;95867.97;5134069;27;20957;-50
2022/01/03 00:40:35;;;;;;;0.67;0.67;;;;;;;6.04;100.00;95859.28;5134266;27;20837;-50
2022/01/03 00:43:05;;;;;;;0.50;0.50;;;;;;;6.11;100.00;95847.59;5134223;27;20446;-50
2022/01/03 00:45:33;;;;;;;0.40;0.37;;;;;;;5.04;100.00;95708.50;5134214;27;20484;-49
2022/01/03 00:48:07;;;;;;;0.87;0.87;;;;;;;5.88;100.00;95836.25;5134165;27;20462;-50
2022/01/03 00:50:35;;;;;;;3.13;1.03;;;;;;;6.03;100.00;95850.56;5134012;27;20777;-50
2022/01/03 00:53:05;;;;;;;0.30;0.30;;;;;;;5.90;100.00;95852.59;5134167;27;20423;-50
2022/01/03 00:55:35;;;;;;;2.27;2.17;;;;;;;5.88;100.00;95847.56;5133671;27;20937;-50
2022/01/03 00:58:07;;;;;;;0.33;0.27;;;;;;;5.83;100.00;95846.63;5133483;27;20522;-50
2022/01/03 01:00:40;;;;;;;0.50;0.50;;;;;;;5.30;100.00;95786.94;5133218;27;20510;-50
2022/01/03 01:03:12;;;;;;;0.83;0.83;;;;;;;5.86;100.00;95857.53;5131159;27;20423;-50
2022/01/03 01:05:43;;;;;;;0.97;0.97;;;;;;;5.83;100.00;95849.25;5131978;27;20434;-49
2022/01/03 01:08:13;;;;;;;0.40;0.40;;;;;;;5.36;100.00;95769.50;5131995;27;20472;-50
2022/01/03 01:10:44;;;;;;;0.93;0.93;;;;;;;5.66;100.00;95854.38;5133604;27;20490;-50
2022/01/03 01:13:14;;;;;;;0.30;0.20;;;;;;;5.67;100.00;95840.97;5133479;27;20483;-50
2022/01/03 01:15:43;;;;;;;0.30;0.20;;;;;;;4.94;100.00;95713.50;5133719;27;20439;-50
2022/01/03 01:18:12;;;;;;;0.40;0.40;;;;;;;5.70;100.00;95829.22;5132733;27;20764;-49
2022/01/03 01:20:41;;;;;;;0.83;0.83;;;;;;;5.71;100.00;95825.56;5133532;27;20509;-50
2022/01/03 01:23:12;;;;;;;0.40;0.40;;;;;;;5.88;100.00;95816.00;5133333;27;20419;-50
2022/01/03 01:28:28;;;;;;;1.30;1.27;;;;;;;5.24;100.00;95755.53;5133420;27;20514;-49
2022/01/03 01:31:00;;;;;;;0.83;0.83;;;;;;;5.64;100.00;95814.34;5133077;27;20431;-49
2022/01/03 01:33:33;;;;;;;0.30;0.20;;;;;;;5.59;100.00;95801.84;5132310;27;20965;-49
2022/01/03 01:36:14;;;;;;;0.40;0.37;;;;;;;5.54;100.00;95772.03;5133161;27;20433;-49
2022/01/03 01:38:48;;;;;;;0.30;0.20;;;;;;;5.31;100.00;95729.94;5133383;27;20427;-49
2022/01/03 01:41:20;;;;;;;0.30;0.20;;;;;;;5.17;100.00;95726.69;5133273;27;20422;-49
2022/01/03 01:43:49;;;;;;;0.50;0.50;;;;;;;5.61;100.00;95773.53;5133161;27;20859;-49
2022/01/03 01:46:24;;;;;;;0.30;0.20;;;;;;;5.54;100.00;95757.03;5132911;27;21059;-49
2022/01/03 01:48:54;;;;;;;0.63;0.63;;;;;;;5.62;100.00;95769.06;5133178;27;20426;-49
2022/01/03 01:51:25;;;;;;;0.97;0.97;;;;;;;5.53;100.00;95760.72;5131394;27;20462;-49
2022/01/03 01:53:56;;;;;;;0.93;0.93;;;;;;;5.59;100.00;95769.53;5131872;27;20462;-49
2022/01/03 01:56:27;;;;;;;0.30;0.30;;;;;;;4.63;100.00;95683.03;5131712;27;20455;-49
2022/01/03 01:59:12;;;;;;;0.37;0.33;;;;;;;4.90;100.00;95778.00;5132671;28;20871;-49
2022/01/03 02:01:49;;;;;;;1.10;1.10;;;;;;;4.97;100.00;95766.41;5132852;28;20470;-49
2022/01/03 02:04:31;;;;;;;0.70;0.70;;;;;;;4.86;100.00;95756.63;5132980;28;20430;-49
2022/01/03 02:07:15;;;;;;;0.30;0.20;;;;;;;3.69;100.00;95599.66;5132528;28;20990;-49
2022/01/03 02:09:49;;;;;;;0.50;0.50;;;;;;;5.08;100.00;95759.59;5131417;28;20509;-49
2022/01/03 02:12:21;;;;;;;0.80;0.80;;;;;;;4.46;100.00;95675.00;5131711;28;20493;-49
2022/01/03 02:14:53;;;;;;;1.37;1.37;;;;;;;4.99;100.00;95760.91;5135727;27;20998;-49
2022/01/03 02:17:21;;;;;;;0.40;0.40;;;;;;;5.18;100.00;95759.84;5136672;27;20997;-49
2022/01/03 02:20:04;;;;;;;0.40;0.30;;;;;;;5.16;100.00;95750.59;5136854;27;20418;-49
2022/01/03 02:22:33;;;;;;;0.50;0.47;;;;;;;5.10;100.00;95739.94;5136552;27;20476;-50
2022/01/03 02:25:01;;;;;;;1.03;1.03;;;;;;;5.14;100.00;95754.22;5136528;27;20522;-49
2022/01/03 02:27:31;;;;;;;5.13;0.77;;;;;;;4.97;100.00;95748.00;5134584;27;20954;-49
2022/01/03 02:30:00;;;;;;;0.30;0.20;;;;;;;4.37;100.00;95749.00;5134629;27;20423;-49
2022/01/03 02:32:28;;;;;;;4.33;2.77;;;;;;;4.01;100.00;95739.31;5134483;27;20516;-49
2022/01/03 02:34:56;;;;;;;0.30;0.20;;;;;;;4.66;100.00;95750.03;5134501;27;20944;-49
2022/01/03 02:37:26;;;;;;;0.60;0.60;;;;;;;4.29;100.00;95750.09;5134734;27;20807;-49
2022/01/03 02:39:55;;;;;;;0.50;0.50;;;;;;;3.62;100.00;95598.16;5135563;27;20430;-50
2022/01/03 02:42:27;;;;;;;2.00;1.90;;;;;;;4.74;100.00;95726.91;5136305;27;20449;-49
2022/01/03 02:45:02;;;;;;;0.30;0.20;;;;;;;5.00;100.00;95718.69;5136327;27;20418;-49
2022/01/03 02:47:31;;;;;;;0.93;0.93;;;;;;;5.07;100.00;95721.19;5135478;27;20960;-50
2022/01/03 02:49:59;;;;;;;1.20;1.10;;;;;;;5.09;100.00;95706.81;5134830;27;20501;-49
2022/01/03 02:52:29;;;;;;;1.23;0.60;;;;;;;4.97;100.00;95700.72;5136326;27;20466;-50
2022/01/03 02:54:58;;;;;;;0.40;0.40;;;;;;;5.14;100.00;95698.25;5136149;27;20488;-49
2022/01/03 02:57:26;;;;;;;0.30;0.20;;;;;;;5.11;100.00;95699.50;5136103;27;20462;-49
2022/01/03 02:59:56;;;;;;;0.30;0.20;;;;;;;5.08;100.00;95693.91;5136076;27;20923;-49
2022/01/03 03:02:27;;;;;;;0.30;0.20;;;;;;;5.13;100.00;95707.16;5135178;27;20434;-49
2022/01/03 03:04:58;;;;;;;0.30;0.20;;;;;;;3.49;100.00;95490.88;5135808;27;20438;-49
2022/01/03 03:07:29;;;;;;;0.30;0.20;;;;;;;5.12;100.00;95705.56;5135942;27;20969;-49
2022/01/03 03:09:59;;;;;;;0.30;0.20;;;;;;;4.68;100.00;95700.75;5135883;27;20434;-49
2022/01/03 03:12:28;;;;;;;0.30;0.30;;;;;;;4.71;100.00;95729.97;5135647;27;20509;-49
2022/01/03 03:14:56;;;;;;;0.83;0.83;;;;;;;4.48;100.00;95709.69;5135836;27;20646;-49
2022/01/03 03:17:25;;;;;;;2.10;1.13;;;;;;;4.48;100.00;95720.19;5135351;27;20982;-49
2022/01/03 03:19:56;;;;;;;0.30;0.30;;;;;;;3.96;100.00;95714.75;5135470;27;20435;-49
2022/01/03 03:22:27;;;;;;;0.73;0.73;;;;;;;3.63;100.00;95708.03;5135337;27;20438;-49
2022/01/03 03:25:05;;;;;;;0.57;0.57;;;;;;;3.37;100.00;95629.66;5135096;27;20434;-50
2022/01/03 03:27:34;;;;;;;0.60;0.60;;;;;;;3.55;100.00;95608.72;5135030;27;20965;-50
2022/01/03 03:30:16;;;;;;;0.97;0.97;;;;;;;4.43;100.00;95719.22;5134769;27;20435;-50
2022/01/03 03:32:45;;;;;;;0.73;0.73;;;;;;;4.76;100.00;95732.75;5135056;27;20560;-51
2022/01/03 03:35:14;;;;;;;0.67;0.67;;;;;;;4.07;100.00;95651.88;5135254;27;20918;-50
2022/01/03 03:37:43;;;;;;;0.40;0.40;;;;;;;4.65;100.00;95732.69;5135327;27;20526;-51
2022/01/03 03:40:14;;;;;;;0.40;0.30;;;;;;;4.69;100.00;95726.78;5134830;27;20829;-50
2022/01/03 03:42:43;;;;;;;0.30;0.20;;;;;;;4.54;100.00;95723.75;5135542;27;20447;-50
2022/01/03 03:45:13;;;;;;;0.60;0.60;;;;;;;4.57;100.00;95727.75;5134999;27;20440;-50
2022/01/03 03:47:42;;;;;;;0.40;0.30;;;;;;;4.62;100.00;95714.75;5135137;27;20427;-50
2022/01/03 03:50:12;;;;;;;0.87;0.87;;;;;;;4.70;100.00;95715.25;5135132;27;20495;-50
2022/01/03 03:52:40;;;;;;;0.40;0.37;;;;;;;4.54;100.00;95680.94;5134861;27;20565;-51
2022/01/03 03:55:09;;;;;;;5.93;1.70;;;;;;;4.75;100.00;95701.47;5134860;27;20953;-50
2022/01/03 03:57:39;;;;;;;0.83;0.77;;;;;;;4.75;100.00;95693.59;5134829;27;20431;-50
2022/01/03 04:00:10;;;;;;;0.77;0.77;;;;;;;4.80;100.00;95697.16;5134432;27;20991;-51
2022/01/03 04:02:38;;;;;;;6.00;5.40;;;;;;;4.81;100.00;95696.09;5134802;27;20430;-50
2022/01/03 04:05:08;;;;;;;1.13;1.00;;;;;;;4.81;100.00;95698.72;5134356;27;20419;-51
2022/01/03 04:07:37;;;;;;;0.60;0.60;;;;;;;4.78;100.00;95693.91;5134735;27;20478;-50
2022/01/03 04:10:07;;;;;;;0.30;0.30;;;;;;;3.90;100.00;95694.66;5134278;27;20461;-50
2022/01/03 04:12:36;;;;;;;1.67;1.57;;;;;;;3.44;100.00;95697.72;5134860;27;20490;-50
2022/01/03 04:15:07;;;;;;;4.20;2.80;;;;;;;3.28;100.00;95680.72;5134657;27;20466;-50
2022/01/03 04:17:35;;;;;;;0.80;0.80;;;;;;;2.95;100.00;95699.31;5134616;27;20461;-50
2022/01/03 04:20:06;;;;;;;0.50;0.50;;;;;;;2.80;100.00;95701.44;5134544;27;20450;-50
2022/01/03 04:22:34;;;;;;;2.10;0.50;;;;;;;2.19;100.00;95612.25;5134351;27;20435;-50
2022/01/03 04:25:03;;;;;;;0.30;0.20;;;;;;;2.96;100.00;95710.59;5134393;27;20522;-50
2022/01/03 04:27:34;;;;;;;0.40;0.30;;;;;;;3.05;100.00;95709.31;5133810;27;20470;-51
2022/01/03 04:30:02;;;;;;;0.70;0.70;;;;;;;2.85;100.00;95654.50;5133572;27;20418;-50
2022/01/03 04:32:32;;;;;;;0.30;0.30;;;;;;;3.24;100.00;95695.25;5133524;27;20522;-50
2022/01/03 04:35:00;;;;;;;0.30;0.20;;;;;;;3.06;100.00;95697.84;5134053;27;20457;-50
2022/01/03 04:37:29;;;;;;;0.30;0.20;;;;;;;2.58;100.00;95708.03;5132735;27;20934;-51
2022/01/03 04:39:57;;;;;;;0.40;0.40;;;;;;;2.90;100.00;95693.91;5134051;27;20510;-51
2022/01/03 04:42:26;;;;;;;0.43;0.43;;;;;;;3.16;100.00;95698.16;5134255;27;20885;-51
2022/01/03 04:44:56;;;;;;;0.40;0.30;;;;;;;3.27;100.00;95700.06;5134131;27;20463;-51
2022/01/03 04:47:25;;;;;;;0.30;0.20;;;;;;;3.30;100.00;95683.94;5167160;27;20429;-50
2022/01/03 04:49:55;;;;;;;1.47;1.47;;;;;;;3.27;100.00;95686.16;5134095;27;20895;-50
2022/01/03 04:52:24;;;;;;;0.63;0.63;;;;;;;3.19;100.00;95682.81;5134131;27;20458;-50
2022/01/03 04:54:53;;;;;;;1.50;1.50;;;;;;;3.12;100.00;95621.03;5133916;27;20816;-50
2022/01/03 04:57:21;;;;;;;1.97;0.33;;;;;;;3.55;100.00;95682.09;5133975;27;20430;-50
2022/01/03 04:59:49;;;;;;;1.23;1.23;;;;;;;3.37;100.00;95673.38;5133677;27;21009;-50
2022/01/03 05:02:18;;;;;;;0.40;0.30;;;;;;;2.47;100.00;95547.28;5133531;27;20941;-50
2022/01/03 05:04:46;;;;;;;0.90;0.90;;;;;;;3.65;100.00;95685.00;5133251;27;20466;-50
2022/01/03 05:07:16;;;;;;;0.30;0.20;;;;;;;3.59;100.00;95683.25;5133646;27;21037;-50
2022/01/03 05:09:45;;;;;;;1.10;0.47;;;;;;;3.04;100.00;95666.63;5133709;27;20514;-50
2022/01/03 05:12:13;;;;;;;4.57;2.20;;;;;;;2.92;100.00;95686.66;5133307;27;20989;-50
2022/01/03 05:14:42;;;;;;;1.43;1.33;;;;;;;3.48;100.00;95702.31;5132865;27;20561;-50
2022/01/03 05:17:10;;;;;;;0.40;0.30;;;;;;;3.00;100.00;95649.75;5133281;27;20455;-50
2022/01/03 05:19:39;;;;;;;2.13;0.67;;;;;;;3.48;100.00;95702.31;5133662;27;20462;-50
2022/01/03 05:22:07;;;;;;;0.97;0.97;;;;;;;3.10;100.00;95641.41;5132942;27;20430;-50
2022/01/03 05:24:37;;;;;;;0.70;0.70;;;;;;;3.60;100.00;95699.78;5133523;27;20503;-50
2022/01/03 05:27:06;;;;;;;0.40;0.40;;;;;;;3.41;100.00;95678.00;5133191;27;20484;-50
2022/01/03 05:29:35;;;;;;;0.30;0.20;;;;;;;3.39;100.00;95681.84;5133463;27;20842;-50
2022/01/03 05:32:04;;;;;;;0.30;0.20;;;;;;;3.69;100.00;95701.13;5132882;27;20514;-50
2022/01/03 05:34:32;;;;;;;0.57;0.50;;;;;;;3.19;100.00;95695.91;5133229;27;20474;-50
2022/01/03 05:37:02;;;;;;;1.07;1.00;;;;;;;3.58;100.00;95673.00;5133073;27;20431;-50
2022/01/03 05:39:30;;;;;;;0.40;0.30;;;;;;;3.82;100.00;95678.16;5132488;27;20430;-50
2022/01/03 05:42:00;;;;;;;0.30;0.20;;;;;;;3.75;100.00;95680.06;5133047;27;20551;-51
2022/01/03 05:44:29;;;;;;;0.40;0.30;;;;;;;3.82;100.00;95674.75;5132726;27;21005;-50
2022/01/03 05:46:58;;;;;;;0.43;0.40;;;;;;;4.10;100.00;95674.25;5132992;27;20441;-50
2022/01/03 05:49:26;;;;;;;1.73;1.60;;;;;;;3.84;100.00;95681.38;5132677;27;20463;-50
2022/01/03 05:51:54;;;;;;;2.43;2.33;;;;;;;3.96;100.00;95684.09;5133122;27;20442;-50
2022/01/03 05:54:23;;;;;;;0.93;0.50;;;;;;;3.85;100.00;95674.31;5132479;27;20459;-51
2022/01/03 05:56:52;;;;;;;2.30;2.10;;;;;;;3.23;100.00;95667.47;5132681;27;20434;-50
2022/01/03 05:59:21;;;;;;;1.37;1.23;;;;;;;2.50;100.00;95641.03;5132954;27;20422;-49
2022/01/03 06:01:51;;;;;;;3.77;3.43;;;;;;;3.27;100.00;95679.13;5132615;28;20845;-50
2022/01/03 06:04:22;;;;;;;8.40;3.73;;;;;;;2.93;100.00;95672.56;5132764;28;20439;-50
2022/01/03 06:06:58;;;;;;;0.77;0.77;;;;;;;3.95;100.00;95673.81;5132575;28;20426;-49
2022/01/03 06:09:26;;;;;;;2.10;2.00;;;;;;;4.14;100.00;95678.84;5132567;28;20950;-50
2022/01/03 06:11:56;;;;;;;2.90;2.73;;;;;;;3.60;100.00;95687.47;5132676;28;20525;-50
2022/01/03 06:14:26;;;;;;;1.23;1.23;;;;;;;3.83;100.00;95690.28;5132945;27;20897;-49
2022/01/03 06:16:55;;;;;;;1.50;1.50;;;;;;;3.41;100.00;95678.00;5132830;28;20816;-49
2022/01/03 06:19:24;;;;;;;0.40;0.40;;;;;;;2.92;100.00;95665.72;5132889;27;20461;-49
2022/01/03 06:21:53;;;;;;;0.93;0.93;;;;;;;3.07;100.00;95665.38;5132715;27;20431;-49
2022/01/03 06:24:21;;;;;;;0.53;0.53;;;;;;;3.13;100.00;95652.25;5131574;27;20926;-49
2022/01/03 06:26:50;;;;;;;4.20;3.80;;;;;;;2.56;100.00;95597.53;5132272;28;20818;-49
2022/01/03 06:29:20;;;;;;;1.73;1.63;;;;;;;2.81;100.00;95679.47;5132042;27;20470;-49
2022/01/03 06:31:50;;;;;;;1.33;1.33;;;;;;;3.58;100.00;95681.66;5132097;28;20484;-49
2022/01/03 06:34:19;;;;;;;0.40;0.30;;;;;;;3.63;100.00;95691.50;5131787;27;20494;-49
2022/01/03 06:36:47;;;;;;;1.50;1.40;;;;;;;3.72;100.00;95685.75;5131966;28;20474;-49
2022/01/03 06:39:17;;;;;;;0.90;0.90;;;;;;;3.60;100.00;95678.81;5131860;27;20498;-49
2022/01/03 06:41:45;;;;;;;2.30;0.80;;;;;;;3.54;100.00;95674.44;5132568;27;20529;-49
2022/01/03 06:44:14;;;;;;;2.50;2.30;;;;;;;3.56;100.00;95688.94;5131980;28;20470;-50
2022/01/03 06:46:42;;;;;;;1.00;1.00;;;;;;;3.46;100.00;95589.06;5132632;27;20457;-50
2022/01/03 06:49:12;;;;;;;1.13;1.03;;;;;;;3.88;100.00;95675.69;5132016;28;20426;-50
2022/01/03 06:51:41;;;;;;;2.20;2.20;;;;;;;3.33;100.00;95683.50;5131781;27;20517;-50
2022/01/03 06:54:12;;;;;;;0.90;0.90;;;;;;;3.12;100.00;95674.22;5132054;28;20488;-50
2022/01/03 06:56:41;;;;;;;1.33;1.33;;;;;;;3.05;100.00;95688.38;5132098;28;20435;-50
2022/01/03 06:59:10;;;;;;;1.77;1.67;;;;;;;3.49;100.00;95696.03;5131344;28;20536;-50
2022/01/03 07:01:39;;;;;;;0.30;0.20;;;;;;;3.88;100.00;95692.25;5134374;27;20828;-49
2022/01/03 07:04:07;;;;;;;0.30;0.23;;;;;;;3.61;100.00;95689.09;5136212;27;20858;-49
2022/01/03 07:06:38;;;;;;;0.43;0.40;;;;;;;4.18;100.00;95687.03;5135838;27;20831;-49
2022/01/03 07:09:07;;;;;;;0.73;0.73;;;;;;;4.53;100.00;95687.22;5135843;27;20915;-49
2022/01/03 07:11:36;;;;;;;0.47;0.47;;;;;;;4.54;100.00;95652.06;5135381;27;20434;-49
2022/01/03 07:18:56;;;;;;;1.67;1.67;;;;;;;4.46;100.00;95682.06;5135283;27;20474;-49
2022/01/03 07:19:45;;;;;;;0.90;0.80;;;;;;;4.90;100.00;95657.22;5135266;27;20510;-49
2022/01/03 07:22:15;;;;;;;1.23;1.23;;;;;;;4.78;100.00;95674.78;5135200;27;20506;-50
2022/01/03 07:24:44;;;;;;;1.40;0.60;;;;;;;4.82;100.00;95674.09;5135133;27;20435;-50
2022/01/03 07:27:13;;;;;;;0.97;0.97;;;;;;;5.15;100.00;95670.97;5135332;27;20473;-50
2022/01/03 07:29:43;;;;;;;7.93;0.97;;;;;;;5.32;100.00;95671.88;5134792;27;20521;-50
2022/01/03 07:32:11;;;;;;;0.73;0.73;;;;;;;5.67;100.00;95617.47;5135752;27;20438;-50
2022/01/03 07:34:40;;;;;;;1.20;1.20;;;;;;;5.60;100.00;95593.13;5135502;27;20470;-50
2022/01/03 07:37:08;;;;;;;4.03;3.70;;;;;;;6.21;100.00;95652.25;5135603;27;20426;-54
2022/01/03 07:39:38;;;;;;;3.53;3.43;;;;;;;6.32;100.00;95649.59;5134791;27;20476;-56
2022/01/03 07:42:07;;;;;;;3.53;2.10;;;;;;;5.97;100.00;95648.09;5135490;27;20449;-55
2022/01/03 07:44:36;;;;;;;8.40;7.90;;;;;;;4.94;100.00;95572.47;5135375;27;20454;-56
2022/01/03 07:47:06;;;;;;;1.67;1.67;;;;;;;5.27;100.00;95608.69;5135330;27;20509;-52
2022/01/03 07:49:35;;;;;;;3.17;2.97;;;;;;;5.02;100.00;95648.31;5135198;27;20798;-51
2022/01/03 07:52:03;;;;;;;15.00;5.47;;;;;;;5.20;100.00;95631.66;5135325;27;20446;-51
2022/01/03 07:54:32;;;;;;;3.97;3.73;;;;;;;5.45;100.00;95644.56;5135446;27;20494;-51
2022/01/03 07:57:03;;;;;;;0.90;0.90;;;;;;;5.04;100.00;95583.22;5135189;27;20426;-51
2022/01/03 07:59:31;;;;;;;2.20;2.10;;;;;;;4.97;100.00;95642.94;5135197;27;20862;-51
2022/01/03 08:02:00;;;;;;;0.70;0.70;;;;;;;4.33;100.00;95650.72;5134491;27;20550;-51
2022/01/03 08:04:30;;;;;;;0.80;0.80;;;;;;;4.97;100.00;95645.56;5134476;27;21208;-51
2022/01/03 08:06:59;;;;;;;1.77;1.20;;;;;;;4.82;100.00;95655.72;5134217;27;20423;-52
2022/01/03 08:09:27;;;;;;;0.50;0.50;;;;;;;4.79;100.00;95648.28;5134739;27;20489;-51
2022/01/03 08:11:56;;;;;;;0.47;0.47;;;;;;;5.00;100.00;95654.81;5134362;27;20830;-51
2022/01/03 08:14:26;;;;;;;4.10;1.90;;;;;;;5.63;100.00;95657.59;5134573;27;20770;-50
2022/01/03 08:16:55;;;;;;;0.43;0.43;;;;;;;6.32;100.00;95651.44;5133970;27;20423;-50
2022/01/03 08:19:24;;;;;;;0.70;0.70;;;;;;;6.27;100.00;95653.97;5134452;27;20946;-51
2022/01/03 08:21:52;;;;;;;2.07;1.93;;;;;;;6.35;100.00;95643.88;5133511;27;20510;-50
2022/01/03 08:24:20;;;;;;;0.40;0.40;;;;;;;6.60;100.00;95646.19;5134112;27;20914;-50
2022/01/03 08:26:50;;;;;;;1.67;1.57;;;;;;;7.27;100.00;95646.25;5134437;27;20473;-50
2022/01/03 08:29:18;;;;;;;1.50;1.50;;;;;;;7.84;100.00;95646.81;5134193;27;20986;-50
2022/01/03 08:31:48;;;;;;;0.63;0.63;;;;;;;8.62;94.82;95627.97;5134189;27;20513;-50
2022/01/03 08:34:17;;;;;;;1.33;1.33;;;;;;;9.03;87.33;95619.38;5134130;27;20423;-50
2022/01/03 08:36:45;;;;;;;1.30;1.30;;;;;;;9.21;87.29;95621.63;5132243;27;20509;-50
2022/01/03 08:39:14;;;;;;;2.63;2.43;;;;;;;9.98;88.81;95608.63;5133862;27;20526;-49
2022/01/03 08:41:42;;;;;;;2.43;2.23;;;;;;;11.00;79.32;95601.78;5133669;27;20466;-49
2022/01/03 08:44:11;;;;;;;4.53;4.20;;;;;;;10.77;74.34;95600.41;5133685;27;20423;-49
2022/01/03 08:46:40;;;;;;;3.73;3.30;;;;;;;10.84;73.73;95596.44;5133169;27;20491;-49
2022/01/03 08:49:10;;;;;;;6.17;4.97;;;;;;;11.62;68.56;95588.97;5133771;27;20422;-50
2022/01/03 08:51:38;;;;;;;3.17;2.97;;;;;;;11.87;63.79;95582.84;5133657;27;20438;-50
2022/01/03 08:54:07;;;;;;;4.43;2.93;;;;;;;12.67;63.13;95573.72;5134065;27;20449;-50
2022/01/03 08:56:36;;;;;;;8.70;3.60;;;;;;;12.96;59.99;95571.09;5132913;27;20833;-53
2022/01/03 08:59:04;;;;;;;5.97;5.03;;;;;;;11.28;59.88;95384.44;5133091;27;20447;-55
2022/01/03 09:01:33;;;;;;;3.00;2.80;;;;;;;12.79;58.45;95578.69;5133121;27;20989;-54
2022/01/03 09:04:01;;;;;;;4.17;3.87;;;;;;;13.01;55.52;95565.75;5133624;27;20456;-53
2022/01/03 09:06:33;;;;;;;1.67;1.67;;;;;;;13.13;53.95;95548.38;5133653;27;20454;-56
2022/01/03 09:09:01;;;;;;;4.27;4.07;;;;;;;12.85;53.39;95538.47;5132621;27;21090;-55
2022/01/03 09:11:31;;;;;;;4.27;3.97;;;;;;;13.15;53.87;95558.75;5133372;27;20767;-54
2022/01/03 09:14:00;;;;;;;3.20;3.00;;;;;;;13.15;54.18;95548.13;5133067;27;20949;-54
2022/01/03 09:16:28;;;;;;;2.13;2.03;;;;;;;14.06;51.60;95547.19;5133285;27;20531;-54
2022/01/03 09:18:57;;;;;;;2.90;2.70;;;;;;;14.44;50.01;95546.19;5133216;27;20934;-54
2022/01/03 09:21:25;;;;;;;1.93;1.83;;;;;;;14.66;49.37;95534.94;5133221;27;20446;-54
2022/01/03 09:24:19;;;;;;;1.63;1.27;;;;;;;15.13;48.61;95529.38;5131616;27;20434;-54
2022/01/03 09:29:35;;;;;;;2.37;2.20;;;;;;;15.77;47.38;95528.56;5132980;27;20513;-54
2022/01/03 09:32:05;;;;;;;2.10;2.00;;;;;;;16.60;46.38;95530.09;5133025;27;20946;-53
2022/01/03 09:34:34;;;;;;;1.63;1.43;;;;;;;16.97;45.11;95508.38;5133305;27;20808;-53
2022/01/03 09:37:03;;;;;;;2.67;1.60;;;;;;;16.24;44.71;95503.31;5132882;27;20557;-53
2022/01/03 09:39:33;;;;;;;2.07;1.57;;;;;;;16.46;45.53;95506.81;5132630;27;20430;-53
2022/01/03 09:42:06;;;;;;;2.17;1.97;;;;;;;16.51;44.14;95495.22;5132764;27;20454;-53
2022/01/03 09:44:36;;;;;;;2.90;1.60;;;;;;;16.15;44.73;95487.16;5132808;27;20855;-52
2022/01/03 09:47:06;;;;;;;5.73;1.67;;;;;;;16.22;43.73;95492.88;5131800;27;20431;-50
2022/01/03 09:49:38;;;;;;;1.03;1.03;;;;;;;15.97;44.40;95484.59;5132728;27;20447;-51
2022/01/03 09:52:08;;;;;;;1.53;1.40;;;;;;;16.65;43.91;95476.44;5132816;27;21021;-50
2022/01/03 09:54:39;;;;;;;1.27;0.93;;;;;;;17.32;42.05;95469.97;5132551;27;20454;-51
2022/01/03 09:57:08;;;;;;;1.80;1.70;;;;;;;17.24;43.09;95453.84;5132826;27;20539;-51
2022/01/03 09:59:37;;;;;;;1.70;1.57;;;;;;;17.39;41.68;95448.09;5132060;27;20855;-51
2022/01/03 10:02:06;;;;;;;2.00;1.77;;;;;;;18.01;41.64;95443.47;5132524;28;20490;-52
2022/01/03 10:04:36;;;;;;;3.10;1.30;;;;;;;19.10;40.43;95437.63;5132269;27;20513;-51
2022/01/03 10:07:08;;;;;;;2.50;1.57;;;;;;;17.28;43.17;95439.53;5132197;28;20435;-51
2022/01/03 10:09:39;;;;;;;0.70;0.63;;;;;;;18.93;41.17;95438.44;5132219;28;20513;-51
2022/01/03 10:12:11;;;;;;;4.47;1.43;;;;;;;16.73;42.44;95427.56;5132184;28;20801;-52
2022/01/03 10:14:40;;;;;;;2.00;1.57;;;;;;;16.77;44.21;95439.25;5132541;28;20426;-52
2022/01/03 10:17:09;;;;;;;1.87;1.77;;;;;;;15.56;46.69;95448.00;5132437;28;20594;-51
2022/01/03 10:19:54;;;;;;;1.63;1.53;;;;;;;15.93;45.88;95436.31;5132447;28;20985;-52
2022/01/03 10:22:25;;;;;;;4.17;2.07;;;;;;;15.77;45.58;95377.03;5132492;28;20427;-51
2022/01/03 10:24:56;;;;;;;2.57;1.90;;;;;;;16.37;45.31;95420.34;5132119;27;20426;-51
2022/01/03 10:27:26;;;;;;;1.97;1.50;;;;;;;17.62;43.26;95412.91;5131673;28;20434;-51
2022/01/03 10:29:57;;;;;;;2.83;2.23;;;;;;;18.04;43.03;95407.94;5132708;28;20835;-51
2022/01/03 10:32:28;;;;;;;1.17;1.07;;;;;;;18.31;41.43;95407.69;5132019;28;20469;-51
2022/01/03 10:34:58;;;;;;;1.17;1.17;;;;;;;17.76;40.83;95319.75;5132351;27;20422;-51
2022/01/03 10:37:37;;;;;;;0.73;0.73;;;;;;;19.23;41.23;95384.78;5136082;27;20477;-51
2022/01/03 10:40:28;;;;;;;1.23;1.13;;;;;;;19.29;39.87;95380.84;5136433;27;20513;-51
2022/01/03 10:42:57;;;;;;;2.17;2.07;;;;;;;18.94;39.48;95378.28;5135850;27;20439;-51
2022/01/03 10:45:31;;;;;;;1.30;1.30;;;;;;;19.41;39.84;95359.47;5136034;27;20462;-52
2022/01/03 10:48:00;;;;;;;1.40;1.30;;;;;;;19.13;39.34;95360.97;5135943;27;20427;-52
2022/01/03 10:50:29;;;;;;;1.40;1.30;;;;;;;19.68;38.98;95353.66;5136320;27;20415;-52
2022/01/03 10:52:57;;;;;;;1.70;1.70;;;;;;;19.11;39.10;95334.44;5136297;27;20911;-53
2022/01/03 10:55:33;;;;;;;4.53;1.03;;;;;;;19.65;38.65;95335.47;5136340;27;20485;-52
2022/01/03 10:58:04;;;;;;;1.93;1.63;;;;;;;20.59;37.61;95333.97;5135832;27;20564;-53
2022/01/03 11:00:36;;;;;;;0.60;0.43;;;;;;;21.21;36.18;95329.19;5135461;27;20521;-53
2022/01/03 11:03:17;;;;;;;8.43;0.60;;;;;;;20.53;36.56;95336.06;5136289;27;20426;-52
2022/01/03 11:05:50;;;;;;;1.73;1.63;;;;;;;20.29;37.28;95330.59;5135505;27;20422;-53
2022/01/03 11:11:09;;;;;;;1.07;0.90;;;;;;;21.82;35.32;95299.50;5135879;27;20438;-53
2022/01/03 11:13:42;;;;;;;0.50;0.50;;;;;;;23.10;35.53;95304.59;5135623;27;20822;-52
2022/01/03 11:16:12;;;;;;;0.47;0.40;;;;;;;23.56;32.63;95294.91;5135210;27;20423;-53
2022/01/03 11:18:45;;;;;;;2.50;1.43;;;;;;;21.96;32.91;95224.38;5136053;27;20425;-52
2022/01/03 11:21:16;;;;;;;1.20;0.70;;;;;;;22.77;33.21;95287.94;5135395;27;20462;-52
2022/01/03 11:23:46;;;;;;;2.37;2.20;;;;;;;21.17;35.18;95282.47;5135106;27;20498;-52
2022/01/03 11:26:18;;;;;;;1.67;1.50;;;;;;;20.01;37.23;95270.34;5135395;27;20466;-52
2022/01/03 11:28:47;;;;;;;1.57;1.43;;;;;;;20.89;36.86;95268.84;5135654;27;20501;-53
2022/01/03 11:31:18;;;;;;;2.10;1.20;;;;;;;21.51;35.82;95262.34;5134671;27;20426;-53
2022/01/03 11:33:48;;;;;;;2.77;2.10;;;;;;;22.33;35.70;95255.50;5135268;27;20433;-53
2022/01/03 11:36:37;;;;;;;1.40;1.30;;;;;;;23.02;32.88;95197.44;5134550;27;20860;-53
2022/01/03 11:39:08;;;;;;;3.30;2.70;;;;;;;23.29;32.42;95243.28;5134806;27;20958;-53
2022/01/03 11:41:39;;;;;;;1.63;1.53;;;;;;;23.16;32.93;95176.13;5134989;27;20483;-53
2022/01/03 11:44:11;;;;;;;1.60;1.50;;;;;;;24.42;30.57;95218.63;5135071;27;20460;-52
2022/01/03 11:46:41;;;;;;;0.50;0.40;;;;;;;22.29;32.18;95226.84;5134484;27;20418;-59
2022/01/03 11:49:10;;;;;;;0.67;0.67;;;;;;;21.16;34.60;95218.91;5135160;27;20784;-52
2022/01/03 11:51:40;;;;;;;1.60;0.80;;;;;;;21.73;34.24;95112.69;5135184;27;20467;-52
2022/01/03 11:54:10;;;;;;;2.17;2.07;;;;;;;23.48;32.20;95204.69;5134811;27;20525;-52
2022/01/03 11:56:44;;;;;;;1.40;1.23;;;;;;;24.34;30.87;95194.47;5134763;27;21001;-53
2022/01/03 12:03:36;;;;;;;1.63;1.10;;;;;;;22.66;32.27;95198.50;5134409;27;20415;-55